createdAt,value
2019-02-22T00:01:54.515Z,26.57
2019-02-22T00:04:58.395Z,27.53
2019-02-22T00:08:02.200Z,28.23
2019-02-22T00:11:06.072Z,31.33
2019-02-22T00:14:09.936Z,34.33
2019-02-22T00:17:13.795Z,39.07
2019-02-22T00:20:17.704Z,39.47
2019-02-22T00:23:21.523Z,34.07
2019-02-22T00:26:25.421Z,29.73
2019-02-22T00:29:29.261Z,30.13
2019-02-22T00:32:33.108Z,30.20
2019-02-22T00:35:37.749Z,30.93
2019-02-22T00:42:03.107Z,29.13
2019-02-22T00:45:07.199Z,30.00
2019-02-22T00:48:11.050Z,30.77
2019-02-22T00:51:14.895Z,32.43
2019-02-22T00:54:18.770Z,35.83
2019-02-22T00:57:22.608Z,33.10
2019-02-22T01:00:26.470Z,32.57
2019-02-22T01:03:30.315Z,29.87
2019-02-22T01:06:34.176Z,29.67
2019-02-22T01:09:38.059Z,28.80
2019-02-22T01:12:41.892Z,29.07
2019-02-22T01:15:45.752Z,29.33
2019-02-22T01:18:49.599Z,29.57
2019-02-22T01:21:53.625Z,29.57
2019-02-22T01:24:57.539Z,27.73
2019-02-22T01:28:01.448Z,27.83
2019-02-22T01:31:05.288Z,26.90
2019-02-22T01:34:09.175Z,27.07
2019-02-22T01:37:13.045Z,26.90
2019-02-22T01:40:16.903Z,25.37
2019-02-22T01:43:20.776Z,28.47
2019-02-22T01:46:24.642Z,28.40
2019-02-22T01:49:28.499Z,25.27
2019-02-22T01:52:32.334Z,25.07
2019-02-22T01:55:36.903Z,25.60
2019-02-22T01:58:48.230Z,24.87
2019-02-22T02:01:46.249Z,25.30
2019-02-22T02:04:50.168Z,25.37
2019-02-22T02:07:54.034Z,25.37
2019-02-22T02:10:57.894Z,25.97
2019-02-22T02:14:01.727Z,22.57
2019-02-22T02:17:05.691Z,23.87
2019-02-22T02:20:09.683Z,25.73
2019-02-22T02:23:13.634Z,28.33
2019-02-22T02:26:17.515Z,30.33
2019-02-22T02:29:21.379Z,31.80
2019-02-22T02:32:25.360Z,33.00
2019-02-22T02:35:29.234Z,32.87
2019-02-22T02:38:33.113Z,32.83
2019-02-22T02:41:36.942Z,33.13
2019-02-22T02:44:40.849Z,29.43
2019-02-22T02:47:44.706Z,29.17
2019-02-22T02:50:48.588Z,29.53
2019-02-22T02:53:52.402Z,29.23
2019-02-22T02:56:56.274Z,25.50
2019-02-22T03:00:00.482Z,28.47
2019-02-22T03:03:04.391Z,28.23
2019-02-22T03:06:12.570Z,31.97
2019-02-22T03:09:16.434Z,31.00
2019-02-22T03:12:20.309Z,31.00
2019-02-22T03:15:24.183Z,31.90
2019-02-22T03:18:28.051Z,29.67
2019-02-22T03:21:31.975Z,27.77
2019-02-22T03:24:35.814Z,27.73
2019-02-22T03:27:39.659Z,28.10
2019-02-22T03:30:43.502Z,28.27
2019-02-22T03:33:47.401Z,27.03
2019-02-22T03:36:51.236Z,28.30
2019-02-22T03:39:55.097Z,27.67
2019-02-22T03:42:59.011Z,30.13
2019-02-22T03:46:03.257Z,28.00
2019-02-22T03:49:07.154Z,28.30
2019-02-22T03:52:28.977Z,28.97
2019-02-22T03:55:32.965Z,30.13
2019-02-22T03:58:36.817Z,30.27
2019-02-22T04:01:40.694Z,31.33
2019-02-22T04:04:44.564Z,30.80
2019-02-22T04:07:48.424Z,31.53
2019-02-22T04:10:52.292Z,34.63
2019-02-22T04:13:56.121Z,36.67
2019-02-22T04:16:59.982Z,35.07
2019-02-22T04:20:04.511Z,33.20
2019-02-22T04:23:08.387Z,32.80
2019-02-22T04:26:12.224Z,33.90
2019-02-22T04:29:16.113Z,31.90
2019-02-22T04:32:20.005Z,29.40
2019-02-22T04:35:23.843Z,30.43
2019-02-22T04:38:27.720Z,31.07
2019-02-22T04:41:31.540Z,29.93
2019-02-22T04:44:35.415Z,21.83
2019-02-22T04:47:39.251Z,18.00
2019-02-22T04:50:43.150Z,15.37
2019-02-22T04:53:46.981Z,12.57
2019-02-22T04:56:50.870Z,8.77
2019-02-22T04:59:54.701Z,8.23
2019-02-22T05:02:58.561Z,6.80
2019-02-22T05:06:02.428Z,6.03
2019-02-22T05:09:06.676Z,7.20
2019-02-22T05:12:11.360Z,4.87
2019-02-22T05:15:15.297Z,4.90
2019-02-22T05:18:19.172Z,5.47
2019-02-22T05:21:23.000Z,7.97
2019-02-22T05:24:26.848Z,8.53
2019-02-22T05:27:30.669Z,8.20
2019-02-22T05:30:36.500Z,6.30
2019-02-22T05:33:40.075Z,6.37
2019-02-22T05:36:44.372Z,5.60
2019-02-22T05:39:48.324Z,5.10
2019-02-22T05:42:52.135Z,5.90
2019-02-22T05:45:56.025Z,5.77
2019-02-22T05:48:59.858Z,4.70
2019-02-22T05:52:03.713Z,3.60
2019-02-22T05:55:07.564Z,4.20
2019-02-22T05:58:11.433Z,4.33
2019-02-22T06:01:15.277Z,4.97
2019-02-22T06:04:19.131Z,5.40
2019-02-22T06:07:23.014Z,5.60
2019-02-22T06:10:26.944Z,5.17
2019-02-22T06:13:30.790Z,5.17
2019-02-22T06:16:34.657Z,4.20
2019-02-22T06:19:38.575Z,4.80
2019-02-22T06:22:42.422Z,5.43
2019-02-22T06:25:46.267Z,5.80
2019-02-22T06:28:50.097Z,6.20
2019-02-22T06:31:53.996Z,6.50
2019-02-22T06:34:57.805Z,7.23
2019-02-22T06:38:01.699Z,7.20
2019-02-22T06:41:05.550Z,7.90
2019-02-22T06:44:11.849Z,7.30
2019-02-22T06:47:14.886Z,8.23
2019-02-22T06:50:18.761Z,7.77
2019-02-22T06:53:22.603Z,8.53
2019-02-22T06:56:26.466Z,7.87
2019-02-22T06:59:30.345Z,7.63
2019-02-22T07:02:34.100Z,7.93
2019-02-22T07:05:38.089Z,10.20
2019-02-22T07:08:41.896Z,7.17
2019-02-22T07:11:53.356Z,5.93
2019-02-22T07:14:57.191Z,5.03
2019-02-22T07:18:01.079Z,5.00
2019-02-22T07:21:04.916Z,5.50
2019-02-22T07:24:08.757Z,7.97
2019-02-22T07:27:12.620Z,5.27
2019-02-22T07:30:16.501Z,5.13
2019-02-22T07:33:20.399Z,4.63
2019-02-22T07:36:24.228Z,4.67
2019-02-22T07:39:28.351Z,4.17
2019-02-22T07:42:32.411Z,4.13
2019-02-22T07:45:36.301Z,4.90
2019-02-22T07:48:40.114Z,5.00
2019-02-22T07:51:44.034Z,4.93
2019-02-22T07:54:47.841Z,5.03
2019-02-22T07:57:51.751Z,5.40
2019-02-22T08:00:55.749Z,4.63
2019-02-22T08:03:59.789Z,4.00
2019-02-22T08:07:03.773Z,4.77
2019-02-22T08:10:07.652Z,4.60
2019-02-22T08:13:19.272Z,5.37
2019-02-22T08:16:17.017Z,5.87
2019-02-22T08:19:20.894Z,5.77
2019-02-22T08:22:24.685Z,5.97
2019-02-22T08:25:28.575Z,5.80
2019-02-22T08:28:32.402Z,5.67
2019-02-22T08:31:36.343Z,5.73
2019-02-22T08:34:40.194Z,5.83
2019-02-22T08:37:44.075Z,5.80
2019-02-22T08:40:48.026Z,6.40
2019-02-22T08:43:51.897Z,6.40
2019-02-22T08:46:55.737Z,5.70
2019-02-22T08:49:59.615Z,6.00
2019-02-22T08:53:03.501Z,6.30
2019-02-22T08:56:07.321Z,6.40
2019-02-22T08:59:11.233Z,6.43
2019-02-22T09:02:15.105Z,5.67
2019-02-22T09:05:19.031Z,5.80
2019-02-22T09:08:22.910Z,5.10
2019-02-22T09:11:26.794Z,5.37
2019-02-22T09:14:30.689Z,5.90
2019-02-22T09:17:34.591Z,5.37
2019-02-22T09:20:38.429Z,5.07
2019-02-22T09:23:42.295Z,5.57
2019-02-22T09:26:46.123Z,6.03
2019-02-22T09:29:58.412Z,5.83
2019-02-22T09:32:55.630Z,6.70
2019-02-22T09:35:59.556Z,5.23
2019-02-22T09:39:05.119Z,6.33
2019-02-22T09:42:08.989Z,6.03
2019-02-22T09:45:13.291Z,6.07
2019-02-22T09:48:17.090Z,6.40
2019-02-22T09:51:20.990Z,7.07
2019-02-22T09:54:24.815Z,6.80
2019-02-22T09:57:28.663Z,6.53
2019-02-22T10:00:32.485Z,7.10
2019-02-22T10:03:36.336Z,6.70
2019-02-22T10:06:40.195Z,6.97
2019-02-22T10:09:44.095Z,7.00
2019-02-22T10:12:47.958Z,6.43
2019-02-22T10:15:51.804Z,6.07
2019-02-22T10:18:55.847Z,6.20
2019-02-22T10:21:59.902Z,5.70
2019-02-22T10:25:03.905Z,6.87
2019-02-22T10:28:17.203Z,6.77
2019-02-22T10:31:13.687Z,10.33
2019-02-22T10:34:17.777Z,7.53
2019-02-22T10:37:21.875Z,6.67
2019-02-22T10:40:26.051Z,5.80
2019-02-22T10:43:29.970Z,6.73
2019-02-22T10:46:33.823Z,5.47
2019-02-22T10:49:37.680Z,6.73
2019-02-22T10:52:41.563Z,4.97
2019-02-22T10:55:45.390Z,5.20
2019-02-22T10:58:49.246Z,4.60
2019-02-22T11:01:53.076Z,5.10
2019-02-22T11:04:56.958Z,9.50
2019-02-22T11:08:00.844Z,5.37
2019-02-22T11:11:04.722Z,8.37
2019-02-22T11:14:08.543Z,7.97
2019-02-22T11:17:12.407Z,7.20
2019-02-22T11:20:16.235Z,5.67
2019-02-22T11:23:20.072Z,6.20
2019-02-22T11:26:23.938Z,6.00
2019-02-22T11:29:27.753Z,5.77
2019-02-22T11:32:31.611Z,4.87
2019-02-22T11:35:35.446Z,4.83
2019-02-22T11:38:39.321Z,5.00
2019-02-22T11:41:43.138Z,5.30
2019-02-22T11:44:46.983Z,5.53
2019-02-22T11:47:50.870Z,5.83
2019-02-22T11:50:54.730Z,7.10
2019-02-22T11:53:58.592Z,5.80
2019-02-22T11:57:02.435Z,4.43
2019-02-22T12:00:20.544Z,5.63
2019-02-22T12:03:25.238Z,6.00
2019-02-22T12:06:29.131Z,7.00
2019-02-22T12:09:33.029Z,4.77
2019-02-22T12:12:36.849Z,4.57
2019-02-22T12:15:41.631Z,4.53
2019-02-22T12:18:45.461Z,4.37
2019-02-22T12:21:49.287Z,4.87
2019-02-22T12:24:53.141Z,6.10
2019-02-22T12:27:57.017Z,6.30
2019-02-22T12:31:00.922Z,6.20
2019-02-22T12:34:04.754Z,7.73
2019-02-22T12:37:08.584Z,7.00
2019-02-22T12:40:12.851Z,6.07
2019-02-22T12:43:16.726Z,4.90
2019-02-22T12:46:20.549Z,4.70
2019-02-22T12:49:24.430Z,4.57
2019-02-22T12:52:28.265Z,4.80
2019-02-22T12:55:32.151Z,4.37
2019-02-22T12:58:35.978Z,4.00
2019-02-22T13:01:39.829Z,6.90
2019-02-22T13:04:43.683Z,6.30
2019-02-22T13:07:47.539Z,6.80
2019-02-22T13:10:51.415Z,5.17
2019-02-22T13:13:55.251Z,4.43
2019-02-22T13:16:59.124Z,4.87
2019-02-22T13:20:02.944Z,5.97
2019-02-22T13:23:06.812Z,6.27
2019-02-22T13:26:10.659Z,5.07
2019-02-22T13:29:14.509Z,4.10
2019-02-22T13:32:18.400Z,4.30
2019-02-22T13:35:22.225Z,5.23
2019-02-22T13:38:26.080Z,4.67
2019-02-22T13:41:29.925Z,5.13
2019-02-22T13:44:33.815Z,5.67
2019-02-22T13:47:37.691Z,4.30
2019-02-22T13:50:41.545Z,4.33
2019-02-22T13:53:45.556Z,4.53
2019-02-22T13:56:49.380Z,4.30
2019-02-22T13:59:53.270Z,4.40
2019-02-22T14:02:57.105Z,5.23
2019-02-22T14:06:02.803Z,5.30
2019-02-22T14:09:07.123Z,4.87
2019-02-22T14:12:10.987Z,5.63
2019-02-22T14:15:14.862Z,4.83
2019-02-22T14:18:18.729Z,4.53
2019-02-22T14:21:22.590Z,5.97
2019-02-22T14:24:26.415Z,6.03
2019-02-22T14:27:30.320Z,4.67
2019-02-22T14:30:34.129Z,6.27
2019-02-22T14:33:37.990Z,5.90
2019-02-22T14:36:41.936Z,5.50
2019-02-22T14:39:45.755Z,5.10
2019-02-22T14:42:49.629Z,5.30
2019-02-22T14:45:53.437Z,4.43
2019-02-22T14:48:57.326Z,6.70
2019-02-22T14:52:01.143Z,5.63
2019-02-22T14:55:06.109Z,4.87
2019-02-22T14:58:09.967Z,4.60
2019-02-22T15:01:13.929Z,4.37
2019-02-22T15:04:17.821Z,4.50
2019-02-22T15:07:21.731Z,4.80
2019-02-22T15:10:25.587Z,4.20
2019-02-22T15:13:29.456Z,4.70
2019-02-22T15:16:51.427Z,4.60
2019-02-22T15:19:55.278Z,5.97
2019-02-22T15:22:59.138Z,5.60
2019-02-22T15:26:03.003Z,6.40
2019-02-22T15:29:06.835Z,6.37
2019-02-22T15:32:10.835Z,6.37
2019-02-22T15:35:16.766Z,7.10
2019-02-22T15:38:20.655Z,7.10
2019-02-22T15:41:24.497Z,7.37
2019-02-22T15:44:28.377Z,6.40
2019-02-22T15:47:32.226Z,6.00
2019-02-22T15:50:36.071Z,6.47
2019-02-22T15:53:39.902Z,6.37
2019-02-22T15:56:43.771Z,6.27
2019-02-22T15:59:47.671Z,7.13
2019-02-22T16:02:51.519Z,7.87
2019-02-22T16:05:55.430Z,9.03
2019-02-22T16:08:59.279Z,8.93
2019-02-22T16:12:03.284Z,8.63
2019-02-22T16:15:09.378Z,8.57
2019-02-22T16:18:13.281Z,10.30
2019-02-22T16:21:17.130Z,13.90
2019-02-22T16:24:21.010Z,15.17
2019-02-22T16:27:24.908Z,10.17
2019-02-22T16:30:30.359Z,15.50
2019-02-22T16:33:34.230Z,9.13
2019-02-22T16:36:38.100Z,16.87
2019-02-22T16:39:42.017Z,22.30
2019-02-22T16:42:45.841Z,8.20
2019-02-22T16:45:49.735Z,12.93
2019-02-22T16:48:53.596Z,9.40
2019-02-22T16:51:57.429Z,9.10
2019-02-22T16:55:01.444Z,9.83
2019-02-22T16:58:05.402Z,18.33
2019-02-22T17:01:09.401Z,15.37
2019-02-22T17:04:13.237Z,8.57
2019-02-22T17:07:17.106Z,8.73
2019-02-22T17:10:20.947Z,14.20
2019-02-22T17:13:24.830Z,11.53
2019-02-22T17:16:28.850Z,20.40
2019-02-22T17:19:32.723Z,13.37
2019-02-22T17:22:36.571Z,12.27
2019-02-22T17:25:40.586Z,12.30
2019-02-22T17:28:44.494Z,7.87
2019-02-22T17:31:48.309Z,9.80
2019-02-22T17:34:52.229Z,8.67
2019-02-22T17:37:56.156Z,9.07
2019-02-22T17:41:01.506Z,9.07
2019-02-22T17:44:05.450Z,10.77
2019-02-22T17:47:09.281Z,9.90
2019-02-22T17:50:13.221Z,14.07
2019-02-22T17:53:17.321Z,15.73
2019-02-22T17:56:21.217Z,13.73
2019-02-22T17:59:25.090Z,12.20
2019-02-22T18:02:28.954Z,10.17
2019-02-22T18:05:32.809Z,10.43
2019-02-22T18:08:36.677Z,12.37
2019-02-22T18:11:40.537Z,11.70
2019-02-22T18:14:44.405Z,11.83
2019-02-22T18:17:48.569Z,11.47
2019-02-22T18:20:52.478Z,12.80
2019-02-22T18:23:56.336Z,11.50
2019-02-22T18:27:00.196Z,9.73
2019-02-22T18:30:05.296Z,7.10
2019-02-22T18:33:09.160Z,6.90
2019-02-22T18:36:13.222Z,13.43
2019-02-22T18:39:17.051Z,8.47
2019-02-22T18:42:20.897Z,7.60
2019-02-22T18:45:24.845Z,9.60
2019-02-22T18:48:28.745Z,7.47
2019-02-22T18:51:32.557Z,6.67
2019-02-22T18:54:36.409Z,6.30
2019-02-22T18:57:40.312Z,6.23
2019-02-22T19:00:44.291Z,5.87
2019-02-22T19:03:48.189Z,6.60
2019-02-22T19:06:52.129Z,7.63
2019-02-22T19:09:56.022Z,6.00
2019-02-22T19:12:59.860Z,7.67
2019-02-22T19:16:03.807Z,10.87
2019-02-22T19:19:09.105Z,10.27
2019-02-22T19:22:13.002Z,8.63
2019-02-22T19:25:16.937Z,13.93
2019-02-22T19:28:20.957Z,8.70
2019-02-22T19:31:24.904Z,10.47
2019-02-22T19:34:33.713Z,15.27
2019-02-22T19:37:38.278Z,16.10
2019-02-22T19:40:42.196Z,11.97
2019-02-22T19:43:46.160Z,9.57
2019-02-22T19:46:50.099Z,7.00
2019-02-22T19:49:56.794Z,6.47
2019-02-22T19:53:00.845Z,6.00
2019-02-22T19:56:04.783Z,5.87
2019-02-22T19:59:08.839Z,6.40
2019-02-22T20:02:12.740Z,6.90
2019-02-22T20:05:16.908Z,7.50
2019-02-22T20:08:20.928Z,8.27
2019-02-22T20:11:25.090Z,7.17
2019-02-22T20:14:29.090Z,6.80
2019-02-22T20:17:33.725Z,5.27
2019-02-22T20:20:37.738Z,7.17
2019-02-22T20:23:47.825Z,14.83
2019-02-22T20:26:51.755Z,12.47
2019-02-22T20:29:57.020Z,10.83
2019-02-22T20:33:01.081Z,11.70
2019-02-22T20:36:05.075Z,9.43
2019-02-22T20:39:09.328Z,12.47
2019-02-22T20:42:13.336Z,10.03
2019-02-22T20:45:17.189Z,7.27
2019-02-22T20:48:21.051Z,6.77
2019-02-22T20:51:25.056Z,6.03
2019-02-22T20:54:30.526Z,7.33
2019-02-22T20:57:34.919Z,7.00
2019-02-22T21:00:38.875Z,8.27
2019-02-22T21:03:42.730Z,15.83
2019-02-22T21:06:46.590Z,14.33
2019-02-22T21:09:50.655Z,11.30
2019-02-22T21:12:54.504Z,10.23
2019-02-22T21:15:58.400Z,8.67
2019-02-22T21:19:02.444Z,8.77
2019-02-22T21:22:06.300Z,7.57
2019-02-22T21:25:11.264Z,11.40
2019-02-22T21:28:16.577Z,11.40
2019-02-22T21:31:20.410Z,14.23
2019-02-22T21:34:24.416Z,17.70
2019-02-22T21:37:28.357Z,15.30
2019-02-22T21:40:32.216Z,15.93
2019-02-22T21:43:36.143Z,15.93
2019-02-22T21:46:39.991Z,15.93
2019-02-22T21:49:43.928Z,13.97
2019-02-22T21:52:47.814Z,14.43
2019-02-22T21:55:51.672Z,12.77
2019-02-22T21:58:55.669Z,12.40
2019-02-22T22:01:59.620Z,12.63
2019-02-22T22:05:03.535Z,12.20
2019-02-22T22:08:07.382Z,11.47
2019-02-22T22:11:11.257Z,11.60
2019-02-22T22:14:15.114Z,10.63
2019-02-22T22:17:19.004Z,11.03
2019-02-22T22:20:22.850Z,10.17
2019-02-22T22:23:26.704Z,9.27
2019-02-22T22:26:30.609Z,9.13
2019-02-22T22:29:34.465Z,7.50
2019-02-22T22:32:38.323Z,8.73
2019-02-22T22:35:42.166Z,7.70
2019-02-22T22:38:46.057Z,11.27
2019-02-22T22:41:49.866Z,10.47
2019-02-22T22:44:53.770Z,10.43
2019-02-22T22:47:57.609Z,9.03
2019-02-22T22:51:01.829Z,8.83
2019-02-22T22:54:05.762Z,9.83
2019-02-22T22:57:09.709Z,8.20
2019-02-22T23:00:27.045Z,9.17
2019-02-22T23:03:30.990Z,8.60
2019-02-22T23:06:34.875Z,8.47
2019-02-22T23:09:38.707Z,7.63
2019-02-22T23:12:44.257Z,7.43
2019-02-22T23:15:48.180Z,8.30
2019-02-22T23:19:01.567Z,7.73
2019-02-22T23:21:57.648Z,7.50
2019-02-22T23:25:01.526Z,7.23
2019-02-22T23:28:05.495Z,7.63
2019-02-22T23:31:09.362Z,7.57
2019-02-22T23:34:13.235Z,7.73
2019-02-22T23:37:17.070Z,7.47
2019-02-22T23:40:20.996Z,7.63
2019-02-22T23:43:24.793Z,7.47
2019-02-22T23:46:28.645Z,8.10
2019-02-22T23:49:32.484Z,8.40
2019-02-22T23:52:36.363Z,8.20
2019-02-22T23:55:40.235Z,8.37
2019-02-22T23:58:44.070Z,8.70
